createdAt,value
2022-11-05T00:01:23.090Z,22.96
2022-11-05T00:04:10.682Z,22.96
2022-11-05T00:06:59.192Z,22.89
2022-11-05T00:09:33.372Z,22.89
2022-11-05T00:12:32.970Z,22.93
2022-11-05T00:15:20.580Z,22.77
2022-11-05T00:17:49.862Z,22.71
2022-11-05T00:20:19.693Z,22.72
2022-11-05T00:23:06.895Z,22.68
2022-11-05T00:25:36.153Z,22.73
2022-11-05T00:28:05.929Z,22.75
2022-11-05T00:30:35.464Z,22.71
2022-11-05T00:33:04.605Z,22.70
2022-11-05T00:35:33.769Z,22.62
2022-11-05T00:38:03.078Z,22.63
2022-11-05T00:40:32.123Z,22.68
2022-11-05T00:43:19.693Z,22.68
2022-11-05T00:45:48.804Z,22.68
2022-11-05T00:48:36.311Z,22.66
2022-11-05T00:51:05.631Z,22.65
2022-11-05T00:53:35.181Z,22.60
2022-11-05T00:56:04.497Z,22.61
2022-11-05T00:58:33.717Z,22.59
2022-11-05T01:01:06.770Z,22.54
2022-11-05T01:03:41.116Z,22.65
2022-11-05T01:06:16.657Z,22.68
2022-11-05T01:08:51.190Z,22.62
2022-11-05T01:11:35.584Z,22.60
2022-11-05T01:14:12.061Z,22.61
2022-11-05T01:16:43.793Z,22.57
2022-11-05T01:19:15.295Z,22.57
2022-11-05T01:21:46.326Z,22.47
2022-11-05T01:24:16.559Z,22.50
2022-11-05T01:26:47.035Z,22.55
2022-11-05T01:29:17.783Z,22.57
2022-11-05T01:31:48.009Z,22.57
2022-11-05T01:34:18.678Z,22.53
2022-11-05T01:36:48.851Z,22.50
2022-11-05T01:39:19.451Z,22.54
2022-11-05T01:41:49.581Z,22.53
2022-11-05T01:44:56.253Z,22.68
2022-11-05T01:47:28.948Z,22.55
2022-11-05T01:50:01.065Z,22.80
2022-11-05T01:52:36.603Z,22.69
2022-11-05T01:55:07.375Z,22.57
2022-11-05T01:57:37.476Z,22.64
2022-11-05T02:00:09.539Z,22.72
2022-11-05T02:02:42.720Z,22.66
2022-11-05T02:05:14.924Z,22.73
2022-11-05T02:07:49.701Z,22.83
2022-11-05T02:10:20.658Z,22.69
2022-11-05T02:12:51.260Z,22.79
2022-11-05T02:15:59.751Z,22.97
2022-11-05T02:18:32.560Z,22.86
2022-11-05T02:21:41.223Z,23.08
2022-11-05T02:24:11.267Z,22.94
2022-11-05T02:26:58.987Z,23.15
2022-11-05T02:30:09.342Z,23.21
2022-11-05T02:32:50.398Z,23.10
2022-11-05T02:35:53.340Z,23.32
2022-11-05T02:38:58.071Z,23.30
2022-11-05T02:41:45.909Z,23.37
2022-11-05T02:44:36.262Z,23.48
2022-11-05T02:47:43.668Z,23.54
2022-11-05T02:50:35.883Z,23.58
2022-11-05T02:53:11.916Z,23.48
2022-11-05T02:56:04.363Z,23.53
2022-11-05T02:58:37.078Z,23.57
2022-11-05T03:01:08.819Z,23.48
2022-11-05T03:03:50.409Z,23.66
2022-11-05T03:07:03.452Z,23.78
2022-11-05T03:09:59.645Z,23.81
2022-11-05T03:12:32.708Z,23.86
2022-11-05T03:15:28.715Z,23.78
2022-11-05T03:18:27.824Z,23.71
2022-11-05T03:21:24.080Z,23.74
2022-11-05T03:24:05.440Z,23.86
2022-11-05T03:26:54.562Z,23.82
2022-11-05T03:29:38.663Z,23.88
2022-11-05T03:32:09.939Z,23.81
2022-11-05T03:34:48.356Z,23.89
2022-11-05T03:37:24.522Z,23.87
2022-11-05T03:39:59.935Z,23.93
2022-11-05T03:42:35.116Z,24.05
2022-11-05T03:45:12.695Z,24.12
2022-11-05T03:47:46.172Z,24.18
2022-11-05T03:50:25.530Z,24.25
2022-11-05T03:53:01.319Z,24.29
2022-11-05T03:55:49.887Z,24.54
2022-11-05T03:58:24.245Z,24.58
2022-11-05T04:00:54.381Z,24.51
2022-11-05T04:03:25.050Z,24.32
2022-11-05T04:06:16.223Z,24.41
2022-11-05T04:09:04.879Z,24.53
2022-11-05T04:11:52.948Z,24.72
2022-11-05T04:14:23.803Z,24.82
2022-11-05T04:17:10.812Z,24.91
2022-11-05T04:20:02.094Z,25.04
2022-11-05T04:22:55.681Z,25.26
2022-11-05T04:25:26.201Z,25.09
2022-11-05T04:28:04.025Z,25.25
2022-11-05T04:30:34.741Z,25.18
2022-11-05T04:33:08.810Z,25.22
2022-11-05T04:35:44.607Z,25.41
2022-11-05T04:38:19.767Z,25.32
2022-11-05T04:40:49.522Z,25.50
2022-11-05T04:43:21.158Z,25.83
2022-11-05T04:45:50.757Z,25.53
2022-11-05T04:48:19.675Z,25.58
2022-11-05T04:50:49.344Z,25.67
2022-11-05T04:53:18.952Z,25.75
2022-11-05T04:55:48.188Z,25.60
2022-11-05T04:58:17.319Z,25.83
2022-11-05T05:00:46.493Z,25.91
2022-11-05T05:03:15.603Z,26.02
2022-11-05T05:05:44.759Z,26.11
2022-11-05T05:08:13.826Z,26.23
2022-11-05T05:10:42.883Z,26.03
2022-11-05T05:13:13.534Z,26.13
2022-11-05T05:15:42.988Z,26.11
2022-11-05T05:18:13.340Z,26.30
2022-11-05T05:21:01.188Z,26.26
2022-11-05T05:23:30.875Z,26.44
2022-11-05T05:26:03.031Z,26.56
2022-11-05T05:28:32.205Z,26.44
2022-11-05T05:31:02.576Z,26.57
2022-11-05T05:33:32.912Z,26.43
2022-11-05T05:36:08.424Z,26.58
2022-11-05T05:38:40.195Z,26.58
2022-11-05T05:41:10.050Z,26.74
2022-11-05T05:43:39.349Z,26.92
2022-11-05T05:46:15.318Z,27.14
2022-11-05T05:48:49.746Z,27.11
2022-11-05T05:51:22.228Z,27.16
2022-11-05T05:53:51.258Z,27.51
2022-11-05T05:56:21.763Z,27.12
2022-11-05T05:58:50.924Z,27.33
2022-11-05T06:01:20.551Z,27.45
2022-11-05T06:03:50.576Z,27.55
2022-11-05T06:06:23.676Z,27.73
2022-11-05T06:08:57.376Z,27.97
2022-11-05T06:11:26.788Z,27.77
2022-11-05T06:13:55.828Z,27.84
2022-11-05T06:16:25.346Z,27.92
2022-11-05T06:18:54.386Z,27.84
2022-11-05T06:21:23.687Z,27.77
2022-11-05T06:23:52.701Z,27.69
2022-11-05T06:26:22.097Z,27.49
2022-11-05T06:28:51.351Z,27.75
2022-11-05T06:31:20.684Z,27.68
2022-11-05T06:33:50.475Z,27.66
2022-11-05T06:36:22.130Z,27.53
2022-11-05T06:38:52.983Z,27.43
2022-11-05T06:41:22.681Z,27.53
2022-11-05T06:43:52.561Z,27.49
2022-11-05T06:46:22.122Z,27.24
2022-11-05T06:48:52.429Z,27.35
2022-11-05T06:51:22.543Z,27.05
2022-11-05T06:53:52.519Z,27.24
2022-11-05T06:56:22.535Z,27.35
2022-11-05T06:58:57.996Z,27.55
2022-11-05T07:01:28.218Z,27.82
2022-11-05T07:03:58.503Z,28.00
2022-11-05T07:06:33.003Z,28.12
2022-11-05T07:09:06.339Z,28.20
2022-11-05T07:11:35.502Z,28.15
2022-11-05T07:14:04.312Z,28.12
2022-11-05T07:16:33.530Z,28.30
2022-11-05T07:19:03.123Z,28.25
2022-11-05T07:21:32.227Z,28.45
2022-11-05T07:24:01.566Z,28.38
2022-11-05T07:26:34.571Z,28.30
2022-11-05T07:29:04.081Z,28.57
2022-11-05T07:31:33.015Z,28.65
2022-11-05T07:34:02.301Z,28.65
2022-11-05T07:36:31.370Z,28.62
2022-11-05T07:39:00.741Z,28.72
2022-11-05T07:41:30.928Z,28.79
2022-11-05T07:44:00.105Z,28.70
2022-11-05T07:46:29.213Z,28.79
2022-11-05T07:48:58.752Z,28.84
2022-11-05T07:51:28.748Z,28.86
2022-11-05T07:53:58.561Z,28.82
2022-11-05T07:56:27.620Z,28.69
2022-11-05T07:58:56.606Z,28.75
2022-11-05T08:01:26.103Z,28.93
2022-11-05T08:03:55.956Z,28.99
2022-11-05T08:06:24.965Z,28.91
2022-11-05T08:08:53.993Z,28.90
2022-11-05T08:11:23.539Z,29.04
2022-11-05T08:13:53.041Z,29.02
2022-11-05T08:16:22.124Z,29.00
2022-11-05T08:18:51.274Z,28.91
2022-11-05T08:21:20.381Z,28.99
2022-11-05T08:23:49.947Z,28.91
2022-11-05T08:26:20.595Z,28.79
2022-11-05T08:28:49.700Z,28.97
2022-11-05T08:31:19.210Z,29.11
2022-11-05T08:33:48.413Z,29.06
2022-11-05T08:36:17.771Z,29.01
2022-11-05T08:38:46.817Z,29.10
2022-11-05T08:41:15.916Z,29.15
2022-11-05T08:43:46.189Z,29.20
2022-11-05T08:46:15.488Z,29.32
2022-11-05T08:48:44.351Z,29.36
2022-11-05T08:51:13.396Z,29.28
2022-11-05T08:53:42.939Z,29.33
2022-11-05T08:56:12.115Z,29.31
2022-11-05T08:58:41.181Z,29.45
2022-11-05T09:01:10.345Z,29.32
2022-11-05T09:03:39.794Z,29.21
2022-11-05T09:06:09.787Z,29.17
2022-11-05T09:08:38.884Z,29.19
2022-11-05T09:11:07.969Z,29.28
2022-11-05T09:13:37.154Z,29.34
2022-11-05T09:16:06.698Z,29.27
2022-11-05T09:18:35.910Z,29.33
2022-11-05T09:21:05.196Z,29.32
2022-11-05T09:23:34.274Z,29.40
2022-11-05T09:26:03.283Z,29.33
2022-11-05T09:28:33.534Z,29.31
2022-11-05T09:31:13.134Z,29.40
2022-11-05T09:33:44.333Z,29.38
2022-11-05T09:36:13.387Z,29.34
2022-11-05T09:38:42.749Z,29.24
2022-11-05T09:41:35.655Z,29.38
2022-11-05T09:44:23.842Z,29.18
2022-11-05T09:46:57.925Z,29.19
2022-11-05T09:49:36.582Z,29.15
2022-11-05T09:52:07.354Z,29.01
2022-11-05T09:54:36.531Z,29.15
2022-11-05T09:57:13.366Z,29.26
2022-11-05T09:59:48.887Z,29.27
2022-11-05T10:02:25.896Z,29.21
2022-11-05T10:05:08.094Z,29.37
2022-11-05T10:07:52.607Z,29.34
2022-11-05T10:10:31.863Z,29.23
2022-11-05T10:13:16.961Z,29.27
2022-11-05T10:15:59.465Z,29.18
2022-11-05T10:18:35.004Z,29.11
2022-11-05T10:21:05.080Z,29.19
2022-11-05T10:23:35.086Z,29.13
2022-11-05T10:26:12.502Z,29.21
2022-11-05T10:28:42.054Z,29.10
2022-11-05T10:31:19.940Z,29.23
2022-11-05T10:34:03.228Z,29.24
2022-11-05T10:36:36.881Z,29.12
2022-11-05T10:39:16.034Z,29.04
2022-11-05T10:41:54.230Z,29.06
2022-11-05T10:45:07.697Z,29.19
2022-11-05T10:48:04.146Z,29.10
2022-11-05T10:50:33.651Z,28.99
2022-11-05T10:53:13.153Z,29.02
2022-11-05T10:55:47.778Z,28.99
2022-11-05T10:58:20.065Z,28.97
2022-11-05T11:00:51.498Z,29.02
2022-11-05T11:03:42.216Z,29.00
2022-11-05T11:06:18.386Z,28.97
2022-11-05T11:08:49.417Z,28.78
2022-11-05T11:11:39.321Z,28.75
2022-11-05T11:14:14.765Z,28.76
2022-11-05T11:16:49.295Z,28.69
2022-11-05T11:19:36.322Z,28.71
2022-11-05T11:22:05.434Z,28.53
2022-11-05T11:24:45.098Z,28.60
2022-11-05T11:27:26.195Z,28.67
2022-11-05T11:30:03.826Z,28.64
2022-11-05T11:32:42.003Z,28.57
2022-11-05T11:35:25.825Z,28.51
2022-11-05T11:37:58.325Z,28.40
2022-11-05T11:40:35.175Z,28.45
2022-11-05T11:43:24.484Z,28.42
2022-11-05T11:45:59.387Z,28.24
2022-11-05T11:48:33.339Z,28.20
2022-11-05T11:51:33.109Z,28.27
2022-11-05T11:54:04.621Z,28.10
2022-11-05T11:56:45.974Z,28.12
2022-11-05T11:59:46.809Z,28.09
2022-11-05T12:02:27.426Z,28.05
2022-11-05T12:05:23.746Z,28.02
2022-11-05T12:08:07.261Z,27.98
2022-11-05T12:10:45.125Z,27.88
2022-11-05T12:13:17.137Z,27.71
2022-11-05T12:15:54.317Z,27.73
2022-11-05T12:18:44.551Z,27.74
2022-11-05T12:21:52.494Z,27.75
2022-11-05T12:24:36.691Z,27.71
2022-11-05T12:27:20.799Z,27.57
2022-11-05T12:30:20.832Z,27.62
2022-11-05T12:32:59.183Z,27.46
2022-11-05T12:35:48.066Z,27.48
2022-11-05T12:38:33.845Z,27.50
2022-11-05T12:41:11.525Z,27.33
2022-11-05T12:43:55.354Z,27.45
2022-11-05T12:46:47.707Z,27.44
2022-11-05T12:49:31.805Z,27.35
2022-11-05T12:52:26.416Z,27.36
2022-11-05T12:55:04.374Z,27.35
2022-11-05T12:57:38.057Z,27.24
2022-11-05T13:00:17.977Z,27.23
2022-11-05T13:03:09.243Z,27.22
2022-11-05T13:05:43.234Z,27.12
2022-11-05T13:08:47.821Z,27.15
2022-11-05T13:11:30.441Z,27.09
2022-11-05T13:13:59.705Z,27.14
2022-11-05T13:16:38.968Z,27.07
2022-11-05T13:19:33.194Z,27.02
2022-11-05T13:22:12.520Z,26.89
2022-11-05T13:24:51.982Z,27.00
2022-11-05T13:27:37.111Z,26.84
2022-11-05T13:30:11.755Z,26.94
2022-11-05T13:32:44.692Z,26.92
2022-11-05T13:35:23.176Z,26.91
2022-11-05T13:38:23.095Z,26.96
2022-11-05T13:41:07.252Z,26.99
2022-11-05T13:43:53.567Z,26.99
2022-11-05T13:46:29.297Z,26.98
2022-11-05T13:49:30.221Z,26.99
2022-11-05T13:52:37.161Z,27.03
2022-11-05T13:55:41.625Z,26.87
2022-11-05T13:58:38.013Z,27.02
2022-11-05T14:01:28.969Z,27.01
2022-11-05T14:03:58.915Z,26.86
2022-11-05T14:06:35.581Z,27.00
2022-11-05T14:09:20.678Z,26.95
2022-11-05T14:11:57.184Z,26.96
2022-11-05T14:14:31.669Z,26.97
2022-11-05T14:17:10.206Z,26.92
2022-11-05T14:20:08.555Z,26.95
2022-11-05T14:22:42.890Z,26.80
2022-11-05T14:25:21.523Z,26.95
2022-11-05T14:27:53.569Z,26.92
2022-11-05T14:30:41.500Z,26.89
2022-11-05T14:33:18.871Z,26.87
2022-11-05T14:35:48.177Z,26.78
2022-11-05T14:38:27.441Z,26.80
2022-11-05T14:41:04.400Z,26.71
2022-11-05T14:43:37.246Z,26.78
2022-11-05T14:46:09.862Z,26.72
2022-11-05T14:48:39.413Z,26.65
2022-11-05T14:51:27.381Z,26.72
2022-11-05T14:54:23.840Z,26.70
2022-11-05T14:56:56.546Z,26.61
2022-11-05T14:59:26.569Z,26.57
2022-11-05T15:01:58.861Z,26.74
2022-11-05T15:04:27.840Z,26.80
2022-11-05T15:07:06.038Z,26.73
2022-11-05T15:09:59.498Z,26.75
2022-11-05T15:12:55.507Z,26.80
2022-11-05T15:15:42.904Z,26.79
2022-11-05T15:18:30.511Z,26.59
2022-11-05T15:21:03.717Z,26.63
2022-11-05T15:23:44.096Z,26.68
2022-11-05T15:26:20.523Z,26.63
2022-11-05T15:28:52.718Z,26.60
2022-11-05T15:31:37.975Z,26.59
2022-11-05T15:34:25.030Z,26.66
2022-11-05T15:37:22.901Z,26.77
2022-11-05T15:39:54.630Z,26.59
2022-11-05T15:42:28.807Z,26.65
2022-11-05T15:45:00.926Z,26.71
2022-11-05T15:47:35.336Z,26.63
2022-11-05T15:50:22.929Z,26.67
2022-11-05T15:53:04.840Z,26.52
2022-11-05T15:55:55.315Z,26.65
2022-11-05T15:58:24.480Z,26.54
2022-11-05T16:00:53.548Z,26.46
2022-11-05T16:03:36.132Z,26.53
2022-11-05T16:06:10.485Z,26.51
2022-11-05T16:08:39.746Z,26.41
2022-11-05T16:11:08.725Z,26.41
2022-11-05T16:13:45.803Z,26.42
2022-11-05T16:16:18.023Z,26.40
2022-11-05T16:18:48.431Z,26.39
2022-11-05T16:21:20.344Z,26.44
2022-11-05T16:23:49.939Z,26.39
2022-11-05T16:29:40.333Z,26.43
2022-11-05T16:32:22.151Z,26.39
2022-11-05T16:34:58.508Z,26.34
2022-11-05T16:37:29.428Z,26.32
2022-11-05T16:39:58.720Z,26.30
2022-11-05T16:42:39.751Z,26.40
2022-11-05T16:45:13.283Z,26.39
2022-11-05T16:47:43.428Z,26.22
2022-11-05T16:50:20.772Z,26.30
2022-11-05T16:52:50.872Z,26.25
2022-11-05T16:55:20.726Z,26.26
2022-11-05T16:57:54.660Z,26.24
2022-11-05T17:00:24.893Z,26.19
2022-11-05T17:02:54.674Z,26.16
2022-11-05T17:05:33.239Z,26.25
2022-11-05T17:08:04.597Z,26.13
2022-11-05T17:10:34.592Z,26.14
2022-11-05T17:13:03.946Z,26.17
2022-11-05T17:15:38.487Z,26.14
2022-11-05T17:18:07.993Z,26.16
2022-11-05T17:20:43.493Z,26.18
2022-11-05T17:23:17.722Z,26.18
2022-11-05T17:25:50.337Z,26.12
2022-11-05T17:28:20.899Z,26.11
2022-11-05T17:30:52.760Z,26.10
2022-11-05T17:33:24.007Z,26.13
2022-11-05T17:35:55.198Z,26.13
2022-11-05T17:38:26.096Z,26.01
2022-11-05T17:40:55.268Z,25.99
2022-11-05T17:43:25.449Z,26.04
2022-11-05T17:45:59.995Z,25.96
2022-11-05T17:48:32.413Z,25.92
2022-11-05T17:51:02.228Z,25.99
2022-11-05T17:53:32.189Z,26.03
2022-11-05T17:56:01.533Z,26.00
2022-11-05T17:58:30.412Z,26.04
2022-11-05T18:00:59.991Z,26.04
2022-11-05T18:03:29.553Z,25.97
2022-11-05T18:06:06.305Z,26.09
2022-11-05T18:08:35.620Z,25.98
2022-11-05T18:11:05.166Z,25.92
2022-11-05T18:13:34.177Z,25.94
2022-11-05T18:16:03.867Z,25.94
2022-11-05T18:18:33.066Z,25.90
2022-11-05T18:21:02.512Z,25.76
2022-11-05T18:23:31.649Z,25.55
2022-11-05T18:26:02.228Z,25.45
2022-11-05T18:28:33.312Z,25.42
2022-11-05T18:31:02.789Z,24.73
2022-11-05T18:33:32.435Z,24.56
2022-11-05T18:36:01.399Z,24.59
2022-11-05T18:38:30.735Z,24.48
2022-11-05T18:40:59.989Z,24.03
2022-11-05T18:43:28.920Z,23.93
2022-11-05T18:45:58.368Z,23.76
2022-11-05T18:48:27.466Z,23.84
2022-11-05T18:51:01.530Z,23.27
2022-11-05T18:53:31.138Z,22.91
2022-11-05T18:56:00.410Z,23.03
2022-11-05T18:58:29.418Z,23.10
2022-11-05T19:01:02.526Z,22.68
2022-11-05T19:03:35.257Z,22.38
2022-11-05T19:06:06.382Z,22.38
2022-11-05T19:08:35.877Z,22.52
2022-11-05T19:11:25.750Z,22.15
2022-11-05T19:13:55.300Z,21.87
2022-11-05T19:16:29.093Z,22.12
2022-11-05T19:19:05.553Z,22.19
2022-11-05T19:21:34.992Z,21.66
2022-11-05T19:24:07.668Z,21.77
2022-11-05T19:26:38.923Z,21.64
2022-11-05T19:29:09.259Z,21.60
2022-11-05T19:31:38.640Z,21.47
2022-11-05T19:34:07.564Z,21.78
2022-11-05T19:36:36.693Z,21.92
2022-11-05T19:39:10.152Z,21.86
2022-11-05T19:41:39.248Z,21.80
2022-11-05T19:44:08.230Z,21.68
2022-11-05T19:46:39.828Z,21.68
2022-11-05T19:49:08.934Z,21.68
2022-11-05T19:51:38.894Z,21.83
2022-11-05T19:54:08.672Z,22.06
2022-11-05T19:56:39.827Z,21.83
2022-11-05T19:59:09.035Z,22.05
2022-11-05T20:01:38.075Z,22.03
2022-11-05T20:04:07.501Z,21.87
2022-11-05T20:06:42.100Z,22.06
2022-11-05T20:09:23.300Z,21.96
2022-11-05T20:11:57.534Z,21.82
2022-11-05T20:14:27.358Z,21.83
2022-11-05T20:16:57.230Z,21.77
2022-11-05T20:19:26.505Z,21.80
2022-11-05T20:21:55.755Z,21.67
2022-11-05T20:24:25.701Z,21.81
2022-11-05T20:26:56.647Z,21.60
2022-11-05T20:29:33.906Z,21.80
2022-11-05T20:32:05.545Z,21.82
2022-11-05T20:34:36.521Z,21.85
2022-11-05T20:37:05.916Z,21.82
2022-11-05T20:39:34.918Z,21.80
2022-11-05T20:42:04.018Z,21.73
2022-11-05T20:44:32.990Z,21.68
2022-11-05T20:47:02.283Z,21.70
2022-11-05T20:49:31.202Z,21.68
2022-11-05T20:52:00.418Z,21.62
2022-11-05T20:54:29.514Z,21.79
2022-11-05T20:56:58.636Z,21.59
2022-11-05T20:59:28.199Z,21.58
2022-11-05T21:01:57.514Z,21.53
2022-11-05T21:04:26.747Z,21.57
2022-11-05T21:06:55.735Z,21.67
2022-11-05T21:09:24.999Z,21.74
2022-11-05T21:12:12.666Z,21.77
2022-11-05T21:14:44.415Z,21.84
2022-11-05T21:17:14.029Z,21.66
2022-11-05T21:19:43.702Z,21.85
2022-11-05T21:22:17.966Z,21.95
2022-11-05T21:24:47.888Z,21.96
2022-11-05T21:27:17.048Z,21.98
2022-11-05T21:29:46.488Z,21.90
2022-11-05T21:32:16.242Z,21.83
2022-11-05T21:34:45.127Z,21.62
2022-11-05T21:37:14.354Z,21.96
2022-11-05T21:39:43.629Z,21.80
2022-11-05T21:42:13.211Z,21.84
2022-11-05T21:44:42.712Z,21.91
2022-11-05T21:47:12.471Z,21.94
2022-11-05T21:49:41.707Z,21.94
2022-11-05T21:52:31.568Z,21.91
2022-11-05T21:55:18.987Z,21.93
2022-11-05T21:58:06.349Z,21.80
2022-11-05T22:00:35.867Z,22.03
2022-11-05T22:03:07.054Z,21.96
2022-11-05T22:05:36.304Z,21.87
2022-11-05T22:08:05.850Z,21.83
2022-11-05T22:10:36.579Z,21.98
2022-11-05T22:13:05.618Z,21.94
2022-11-05T22:15:35.757Z,21.93
2022-11-05T22:18:05.126Z,22.02
2022-11-05T22:20:34.124Z,21.99
2022-11-05T22:23:06.326Z,22.04
2022-11-05T22:25:40.248Z,22.12
2022-11-05T22:28:09.594Z,22.07
2022-11-05T22:30:38.822Z,22.10
2022-11-05T22:33:08.282Z,22.01
2022-11-05T22:35:40.363Z,21.97
2022-11-05T22:38:10.210Z,22.01
2022-11-05T22:40:39.770Z,22.01
2022-11-05T22:43:09.305Z,22.02
2022-11-05T22:45:38.915Z,22.00
2022-11-05T22:48:08.145Z,21.91
2022-11-05T22:50:37.228Z,21.89
2022-11-05T22:53:06.329Z,21.89
2022-11-05T22:55:40.044Z,22.02
2022-11-05T22:58:09.104Z,21.84
2022-11-05T23:00:40.528Z,22.05
2022-11-05T23:03:10.153Z,21.96
2022-11-05T23:05:39.353Z,21.97
2022-11-05T23:08:26.876Z,21.85
2022-11-05T23:11:14.326Z,22.06
2022-11-05T23:13:43.483Z,22.01
2022-11-05T23:16:30.609Z,21.98
2022-11-05T23:19:18.546Z,22.09
2022-11-05T23:22:06.159Z,22.13
2022-11-05T23:24:35.375Z,22.13
2022-11-05T23:27:04.428Z,22.13
2022-11-05T23:29:33.590Z,22.15
2022-11-05T23:32:21.332Z,22.15
2022-11-05T23:34:51.152Z,21.99
2022-11-05T23:37:40.037Z,22.10
2022-11-05T23:40:12.333Z,22.02
2022-11-05T23:43:00.745Z,22.00
2022-11-05T23:45:48.969Z,22.06
2022-11-05T23:48:24.379Z,21.90
2022-11-05T23:51:04.239Z,22.20
2022-11-05T23:53:36.822Z,22.17
2022-11-05T23:56:13.513Z,22.15
2022-11-05T23:58:43.958Z,21.94
